Time;durP1;ratioP1;P1;durP2;ratioP2;P2;SDS_P1;SDS_P2;PMS_P1;PMS_P2;Temp;Humidity;BMP_temperature;BMP_pressure;BME280_temperature;BME280_humidity;BME280_pressure;Samples;Min_cycle;Max_cycle;Signal;HPM_P1;HPM_P2
2023/12/31 07:11:49;;;;;;;13.50;9.75;;;;;;;;;;6127236;23;20051;-85
2023/12/31 07:14:15;;;;;;;13.52;9.48;;;;;;;;;;6127282;23;20481;-86
2023/12/31 07:16:40;;;;;;;16.08;10.23;;;;;;;;;;6128368;23;20010;-84
2023/12/31 10:14:01;;;;;;;13.57;9.88;;;;;;;;;;6200824;23;20024;-83
2023/12/31 10:16:34;;;;;;;15.63;10.32;;;;;;;;;;6187294;23;20009;-85
2023/12/31 10:19:00;;;;;;;12.30;9.80;;;;;;;;;;6187496;23;20005;-82
2023/12/31 10:21:26;;;;;;;13.18;9.60;;;;;;;;;;6187572;23;20012;-83
2023/12/31 10:23:52;;;;;;;12.82;10.05;;;;;;;;;;6185838;23;20001;-84
2023/12/31 10:26:18;;;;;;;14.35;10.32;;;;;;;;;;6187308;23;20005;-83
2023/12/31 10:28:43;;;;;;;12.20;9.05;;;;;;;;;;6187401;23;20009;-85
2023/12/31 10:31:10;;;;;;;12.70;10.27;;;;;;;;;;6185672;23;20071;-84
2023/12/31 10:33:37;;;;;;;14.43;10.35;;;;;;;;;;6187515;23;20072;-83
2023/12/31 10:36:05;;;;;;;14.23;10.27;;;;;;;;;;6187337;23;20041;-83
2023/12/31 10:38:45;;;;;;;15.27;10.73;;;;;;;;;;6187298;23;20001;-82
2023/12/31 10:41:14;;;;;;;14.00;10.55;;;;;;;;;;6185598;23;20013;-82
2023/12/31 10:43:40;;;;;;;13.93;10.98;;;;;;;;;;6187387;23;20124;-83
2023/12/31 10:46:07;;;;;;;15.38;10.73;;;;;;;;;;6185996;23;20034;-83
2023/12/31 10:48:33;;;;;;;17.77;11.88;;;;;;;;;;6186963;23;20001;-86
2023/12/31 10:51:05;;;;;;;18.85;12.73;;;;;;;;;;6184774;23;20097;-83
2023/12/31 10:53:35;;;;;;;21.25;15.88;;;;;;;;;;6186709;23;20438;-87
2023/12/31 10:56:01;;;;;;;20.38;14.25;;;;;;;;;;6186646;23;19997;-84
2023/12/31 10:58:27;;;;;;;21.30;14.65;;;;;;;;;;6186118;23;20012;-84
2023/12/31 11:00:53;;;;;;;18.75;13.75;;;;;;;;;;6184860;23;20033;-83
2023/12/31 11:03:18;;;;;;;19.15;14.48;;;;;;;;;;6186196;23;20001;-82
2023/12/31 11:05:44;;;;;;;16.55;12.95;;;;;;;;;;6184930;23;20029;-84
2023/12/31 11:08:11;;;;;;;15.93;13.05;;;;;;;;;;6186077;23;20483;-84
2023/12/31 11:10:36;;;;;;;19.50;13.90;;;;;;;;;;6186092;23;20005;-84
2023/12/31 11:13:03;;;;;;;19.45;14.20;;;;;;;;;;6186808;23;20012;-83
2023/12/31 11:15:30;;;;;;;21.23;15.60;;;;;;;;;;6186498;23;20084;-82
2023/12/31 11:18:01;;;;;;;19.20;14.43;;;;;;;;;;6185055;23;20001;-84
2023/12/31 11:20:46;;;;;;;17.77;14.52;;;;;;;;;;6186416;23;20005;-83
2023/12/31 11:23:37;;;;;;;19.33;14.27;;;;;;;;;;6184864;23;20012;-84
2023/12/31 11:26:05;;;;;;;17.52;13.55;;;;;;;;;;6186240;23;20004;-83
2023/12/31 11:28:32;;;;;;;17.73;14.30;;;;;;;;;;6186115;23;20012;-82
2023/12/31 11:31:02;;;;;;;20.10;14.50;;;;;;;;;;6186687;23;20008;-82
2023/12/31 11:33:32;;;;;;;17.95;13.55;;;;;;;;;;6186614;23;20005;-82
2023/12/31 11:36:07;;;;;;;17.52;14.32;;;;;;;;;;6186839;23;20001;-83
2023/12/31 11:38:59;;;;;;;17.92;13.52;;;;;;;;;;6185993;23;20005;-83
2023/12/31 11:41:33;;;;;;;19.67;14.30;;;;;;;;;;6180774;23;20021;-81
2023/12/31 11:43:58;;;;;;;19.85;14.98;;;;;;;;;;6186062;23;20072;-85
2023/12/31 11:46:38;;;;;;;20.27;15.27;;;;;;;;;;6186114;23;20086;-83
2023/12/31 11:49:07;;;;;;;19.35;14.25;;;;;;;;;;6186091;23;20328;-82
2023/12/31 11:52:01;;;;;;;18.43;14.53;;;;;;;;;;6186276;23;20009;-86
2023/12/31 11:54:33;;;;;;;18.40;13.82;;;;;;;;;;6184493;23;20012;-83
2023/12/31 11:57:00;;;;;;;22.40;13.90;;;;;;;;;;6184687;23;20013;-85
2023/12/31 11:59:26;;;;;;;19.58;13.07;;;;;;;;;;6186359;23;20016;-84
2023/12/31 12:01:53;;;;;;;18.65;13.30;;;;;;;;;;6185757;23;20069;-84
2023/12/31 12:04:19;;;;;;;18.98;15.02;;;;;;;;;;6186078;23;20009;-86
2023/12/31 12:06:45;;;;;;;24.10;14.98;;;;;;;;;;6185931;23;20005;-84
2023/12/31 12:09:11;;;;;;;20.45;15.48;;;;;;;;;;6186246;23;20001;-83
2023/12/31 12:11:38;;;;;;;20.83;15.38;;;;;;;;;;6185893;23;20044;-84
2023/12/31 12:14:04;;;;;;;21.23;16.35;;;;;;;;;;6186156;23;20012;-83
2023/12/31 12:16:30;;;;;;;31.30;19.70;;;;;;;;;;6186128;23;20009;-81
2023/12/31 12:19:05;;;;;;;31.17;19.60;;;;;;;;;;6185971;23;20001;-84
2023/12/31 12:21:31;;;;;;;27.40;20.13;;;;;;;;;;6184255;23;20013;-83
2023/12/31 12:23:56;;;;;;;25.73;19.60;;;;;;;;;;6185899;23;20016;-81
2023/12/31 12:26:22;;;;;;;26.67;20.25;;;;;;;;;;6186414;23;20005;-83
2023/12/31 12:28:49;;;;;;;29.17;19.50;;;;;;;;;;6186201;23;20023;-84
2023/12/31 12:31:17;;;;;;;25.50;19.60;;;;;;;;;;6185779;23;20060;-83
2023/12/31 12:33:52;;;;;;;26.92;19.75;;;;;;;;;;6186219;23;20099;-82
2023/12/31 12:36:18;;;;;;;29.55;20.88;;;;;;;;;;6187877;23;20064;-84
2023/12/31 12:38:45;;;;;;;29.85;20.00;;;;;;;;;;6187772;23;20498;-85
2023/12/31 12:41:12;;;;;;;29.25;21.08;;;;;;;;;;6188167;23;20008;-83
2023/12/31 12:43:37;;;;;;;28.80;19.92;;;;;;;;;;6188294;23;20085;-84
2023/12/31 12:46:06;;;;;;;28.00;19.90;;;;;;;;;;6187993;23;20001;-84
2023/12/31 12:48:33;;;;;;;25.80;19.25;;;;;;;;;;6187827;23;20010;-83
2023/12/31 12:50:59;;;;;;;27.58;19.88;;;;;;;;;;6187908;23;20009;-84
2023/12/31 12:53:25;;;;;;;27.95;20.40;;;;;;;;;;6188093;23;20055;-83
2023/12/31 12:55:51;;;;;;;28.67;20.95;;;;;;;;;;6188127;23;20001;-83
2023/12/31 12:58:16;;;;;;;26.35;20.42;;;;;;;;;;6187618;23;20011;-83
2023/12/31 13:00:41;;;;;;;27.17;20.63;;;;;;;;;;6189599;23;20016;-82
2023/12/31 13:03:07;;;;;;;25.88;18.63;;;;;;;;;;6190253;23;20020;-83
2023/12/31 13:05:32;;;;;;;26.92;18.77;;;;;;;;;;6187813;23;20012;-83
2023/12/31 13:07:58;;;;;;;27.52;19.70;;;;;;;;;;6188171;23;20025;-83
2023/12/31 13:10:24;;;;;;;27.60;21.63;;;;;;;;;;6187568;23;20032;-82
2023/12/31 13:12:49;;;;;;;30.83;22.42;;;;;;;;;;6188209;23;20458;-83
2023/12/31 13:15:15;;;;;;;30.00;22.55;;;;;;;;;;6185910;23;20017;-83
2023/12/31 13:17:40;;;;;;;27.30;20.80;;;;;;;;;;6187895;23;20314;-82
2023/12/31 13:20:08;;;;;;;30.63;21.60;;;;;;;;;;6188424;23;20005;-83
2023/12/31 13:22:33;;;;;;;27.83;20.17;;;;;;;;;;6187699;23;20436;-83
2023/12/31 13:24:59;;;;;;;30.15;21.77;;;;;;;;;;6187892;23;20005;-84
2023/12/31 13:27:25;;;;;;;28.65;22.63;;;;;;;;;;6188476;23;20302;-83
2023/12/31 13:29:50;;;;;;;31.73;21.23;;;;;;;;;;6187830;23;20088;-83
2023/12/31 13:32:16;;;;;;;26.48;20.17;;;;;;;;;;6187838;23;20040;-82
2023/12/31 13:34:41;;;;;;;25.80;18.55;;;;;;;;;;6188038;23;20028;-83
2023/12/31 13:37:07;;;;;;;27.05;20.35;;;;;;;;;;6188143;23;20028;-83
2023/12/31 13:39:32;;;;;;;26.50;19.02;;;;;;;;;;6187462;23;20001;-83
2023/12/31 13:41:58;;;;;;;25.30;18.75;;;;;;;;;;6187511;23;20328;-84
2023/12/31 13:44:23;;;;;;;26.48;18.50;;;;;;;;;;6187126;23;20504;-83
2023/12/31 13:46:49;;;;;;;26.17;19.02;;;;;;;;;;6186970;23;20004;-82
2023/12/31 13:49:14;;;;;;;26.65;18.92;;;;;;;;;;6187102;23;20036;-84
2023/12/31 13:51:40;;;;;;;28.35;19.95;;;;;;;;;;6187080;23;20005;-83
2023/12/31 13:54:05;;;;;;;29.23;21.27;;;;;;;;;;6187573;23;20005;-86
2023/12/31 13:56:31;;;;;;;29.30;21.70;;;;;;;;;;6185866;23;20005;-82
2023/12/31 13:58:56;;;;;;;26.13;20.88;;;;;;;;;;6187499;23;20001;-84
2023/12/31 14:01:22;;;;;;;34.00;23.45;;;;;;;;;;6185238;23;20005;-83
2023/12/31 14:03:48;;;;;;;34.72;24.45;;;;;;;;;;6186875;23;20028;-83
2023/12/31 14:06:16;;;;;;;32.08;22.35;;;;;;;;;;6185714;23;20084;-85
2023/12/31 14:08:42;;;;;;;30.05;21.02;;;;;;;;;;6187069;23;20012;-86
2023/12/31 14:11:08;;;;;;;29.70;21.23;;;;;;;;;;6185556;23;20013;-83
2023/12/31 14:13:34;;;;;;;30.35;20.73;;;;;;;;;;6187218;23;20011;-84
2023/12/31 14:15:59;;;;;;;28.60;20.50;;;;;;;;;;6187037;23;20017;-84
2023/12/31 14:18:25;;;;;;;31.40;20.55;;;;;;;;;;6186678;23;20008;-81
2023/12/31 14:20:50;;;;;;;29.20;20.52;;;;;;;;;;6186778;23;20002;-83
2023/12/31 14:23:16;;;;;;;28.13;20.33;;;;;;;;;;6185361;23;20332;-83
2023/12/31 14:25:41;;;;;;;27.67;18.70;;;;;;;;;;6187464;23;20015;-85
2023/12/31 14:28:07;;;;;;;27.30;19.25;;;;;;;;;;6187099;23;20004;-83
2023/12/31 14:30:33;;;;;;;24.70;19.25;;;;;;;;;;6186089;23;20005;-87
2023/12/31 14:32:58;;;;;;;25.55;18.88;;;;;;;;;;6186889;23;20032;-84
2023/12/31 14:35:24;;;;;;;25.70;19.02;;;;;;;;;;6186924;23;20004;-84
2023/12/31 14:37:49;;;;;;;26.38;19.48;;;;;;;;;;6186543;23;20001;-85
2023/12/31 14:40:15;;;;;;;27.10;20.17;;;;;;;;;;6186685;23;20005;-84
2023/12/31 14:42:40;;;;;;;29.60;19.70;;;;;;;;;;6186725;23;20447;-84
2023/12/31 14:45:07;;;;;;;28.20;19.95;;;;;;;;;;6186836;23;20001;-85
2023/12/31 14:47:33;;;;;;;31.33;23.52;;;;;;;;;;6185290;23;20088;-85
2023/12/31 14:49:58;;;;;;;29.15;20.63;;;;;;;;;;6186801;23;20032;-86
2023/12/31 14:52:24;;;;;;;31.05;22.02;;;;;;;;;;6186947;23;20012;-83
2023/12/31 14:54:49;;;;;;;31.92;22.48;;;;;;;;;;6184977;23;20009;-82
2023/12/31 14:57:15;;;;;;;26.75;19.80;;;;;;;;;;6186521;23;20013;-82
2023/12/31 14:59:40;;;;;;;34.20;23.30;;;;;;;;;;6186888;23;20080;-86
2023/12/31 15:02:06;;;;;;;29.17;21.77;;;;;;;;;;6189231;23;20001;-83
2023/12/31 15:04:31;;;;;;;32.30;24.00;;;;;;;;;;6189890;23;20079;-85
2023/12/31 15:06:57;;;;;;;32.45;22.70;;;;;;;;;;6188000;23;20076;-85
2023/12/31 15:09:22;;;;;;;31.30;22.73;;;;;;;;;;6191427;23;20008;-85
2023/12/31 15:11:49;;;;;;;33.17;22.83;;;;;;;;;;6189095;23;20016;-84
2023/12/31 15:14:14;;;;;;;31.15;22.02;;;;;;;;;;6186522;23;19997;-84
2023/12/31 15:16:39;;;;;;;28.88;22.10;;;;;;;;;;6186710;23;20015;-85
2023/12/31 15:19:05;;;;;;;34.72;24.65;;;;;;;;;;6184865;23;20005;-82
2023/12/31 15:21:30;;;;;;;37.13;25.05;;;;;;;;;;6186211;23;20000;-83
2023/12/31 15:23:56;;;;;;;32.78;23.15;;;;;;;;;;6186173;23;20005;-86
2023/12/31 15:26:22;;;;;;;31.77;23.70;;;;;;;;;;6184526;23;20016;-82
2023/12/31 15:28:48;;;;;;;37.97;24.15;;;;;;;;;;6186276;23;20080;-82
2023/12/31 15:31:13;;;;;;;31.75;21.55;;;;;;;;;;6185684;23;20448;-84
2023/12/31 15:33:39;;;;;;;30.40;22.70;;;;;;;;;;6186297;23;20318;-82
2023/12/31 15:36:05;;;;;;;30.92;21.65;;;;;;;;;;6186184;23;20088;-87
2023/12/31 15:38:30;;;;;;;28.73;21.15;;;;;;;;;;6186124;23;20001;-83
2023/12/31 15:40:56;;;;;;;30.63;22.33;;;;;;;;;;6186014;23;20008;-83
2023/12/31 15:43:21;;;;;;;29.02;21.23;;;;;;;;;;6186008;23;20005;-84
2023/12/31 15:45:47;;;;;;;28.50;20.02;;;;;;;;;;6186050;23;20001;-85
2023/12/31 15:48:12;;;;;;;27.30;19.05;;;;;;;;;;6185969;23;20001;-84
2023/12/31 15:50:37;;;;;;;22.92;17.50;;;;;;;;;;6185948;23;20009;-86
2023/12/31 15:53:06;;;;;;;25.38;18.48;;;;;;;;;;6186064;23;20375;-83
2023/12/31 15:55:33;;;;;;;26.20;18.33;;;;;;;;;;6186119;23;20447;-85
2023/12/31 15:57:58;;;;;;;24.55;17.25;;;;;;;;;;6186197;23;20024;-83
2023/12/31 16:00:24;;;;;;;27.48;18.92;;;;;;;;;;6186041;23;20005;-85
2023/12/31 16:02:50;;;;;;;25.60;18.17;;;;;;;;;;6185948;23;20439;-86
2023/12/31 16:05:17;;;;;;;22.88;16.52;;;;;;;;;;6185912;23;20005;-88
2023/12/31 16:07:42;;;;;;;24.88;17.75;;;;;;;;;;6186106;23;20421;-85
2023/12/31 16:10:09;;;;;;;24.38;18.30;;;;;;;;;;6184289;23;20001;-87
2023/12/31 16:12:35;;;;;;;25.17;18.83;;;;;;;;;;6184375;23;20013;-85
2023/12/31 16:15:00;;;;;;;24.73;17.58;;;;;;;;;;6185928;23;20013;-85
2023/12/31 16:17:26;;;;;;;24.40;18.05;;;;;;;;;;6185859;23;20442;-86
2023/12/31 16:19:52;;;;;;;23.40;17.23;;;;;;;;;;6185919;23;20009;-87
2023/12/31 16:22:18;;;;;;;22.77;16.73;;;;;;;;;;6185786;23;20028;-87
2023/12/31 16:24:43;;;;;;;23.75;17.48;;;;;;;;;;6185675;23;20005;-87
2023/12/31 16:27:08;;;;;;;23.98;17.38;;;;;;;;;;6183981;23;20417;-87
2023/12/31 16:29:36;;;;;;;22.23;17.50;;;;;;;;;;6185833;23;20413;-86
2023/12/31 16:32:01;;;;;;;23.23;17.17;;;;;;;;;;6183775;23;20011;-86
2023/12/31 16:34:27;;;;;;;25.33;18.25;;;;;;;;;;6184571;23;20009;-87
2023/12/31 16:36:52;;;;;;;23.48;17.17;;;;;;;;;;6184355;23;20016;-89
2023/12/31 16:39:18;;;;;;;22.08;16.33;;;;;;;;;;6184248;23;20100;-87
2023/12/31 16:41:43;;;;;;;24.27;18.63;;;;;;;;;;6185371;23;20036;-87
2023/12/31 16:44:10;;;;;;;21.58;17.63;;;;;;;;;;6185757;23;20198;-87
2023/12/31 18:39:35;;;;;;;25.60;19.25;;;;;;;;;;6158482;23;20009;-89
2023/12/31 18:42:01;;;;;;;27.77;18.58;;;;;;;;;;6185588;23;20075;-90
2023/12/31 18:44:26;;;;;;;24.67;19.33;;;;;;;;;;6185279;23;20336;-85
2023/12/31 18:46:52;;;;;;;24.25;18.40;;;;;;;;;;6185085;23;20009;-89
2023/12/31 18:49:17;;;;;;;27.33;19.85;;;;;;;;;;6186881;23;20005;-92
2023/12/31 18:51:42;;;;;;;32.15;23.25;;;;;;;;;;6186798;23;20442;-92
2023/12/31 18:54:09;;;;;;;31.35;22.55;;;;;;;;;;6186149;23;20005;-93
2023/12/31 18:56:35;;;;;;;29.15;21.88;;;;;;;;;;6161469;23;20013;-87
2023/12/31 18:59:04;;;;;;;27.88;21.00;;;;;;;;;;6186485;23;20012;-86
2023/12/31 19:01:30;;;;;;;28.40;21.15;;;;;;;;;;6184969;23;20001;-87
2023/12/31 19:03:57;;;;;;;25.55;19.65;;;;;;;;;;6186581;23;20005;-87
2023/12/31 19:06:24;;;;;;;25.30;19.13;;;;;;;;;;6184779;23;20009;-88
2023/12/31 19:08:49;;;;;;;27.58;19.92;;;;;;;;;;6185270;23;20005;-88
2023/12/31 19:11:15;;;;;;;27.63;19.25;;;;;;;;;;6185002;23;20047;-88
2023/12/31 19:13:40;;;;;;;26.98;20.27;;;;;;;;;;6185140;23;20030;-87
2023/12/31 19:16:06;;;;;;;28.63;20.73;;;;;;;;;;6186418;23;19997;-89
2023/12/31 19:18:31;;;;;;;32.15;21.58;;;;;;;;;;6186481;23;19997;-87
2023/12/31 19:20:57;;;;;;;29.25;21.85;;;;;;;;;;6184733;23;20001;-88
2023/12/31 19:23:22;;;;;;;30.88;21.40;;;;;;;;;;6184968;23;20001;-93
2023/12/31 19:25:48;;;;;;;29.90;22.05;;;;;;;;;;6186471;23;20084;-89
2023/12/31 19:28:13;;;;;;;24.33;18.63;;;;;;;;;;6184917;23;20039;-89
2023/12/31 19:30:40;;;;;;;26.65;20.60;;;;;;;;;;6186397;23;20001;-89
2023/12/31 19:33:07;;;;;;;27.00;19.60;;;;;;;;;;6186373;23;20461;-91
2023/12/31 19:35:32;;;;;;;23.90;18.38;;;;;;;;;;6186381;23;19997;-90
2023/12/31 19:37:58;;;;;;;25.85;19.67;;;;;;;;;;6186632;23;20084;-89
2023/12/31 19:40:23;;;;;;;23.85;18.67;;;;;;;;;;6184577;23;20023;-87
2023/12/31 19:42:49;;;;;;;26.63;20.10;;;;;;;;;;6184240;23;20033;-88
2023/12/31 19:45:14;;;;;;;26.90;19.40;;;;;;;;;;6185554;23;20012;-87
2023/12/31 19:47:40;;;;;;;25.65;18.88;;;;;;;;;;6186241;23;20329;-87
2023/12/31 19:50:05;;;;;;;31.50;22.10;;;;;;;;;;6186763;23;20001;-92
2023/12/31 19:52:31;;;;;;;42.20;26.70;;;;;;;;;;6186062;23;20001;-88
2023/12/31 19:54:57;;;;;;;33.40;23.10;;;;;;;;;;6186676;23;20011;-92
2023/12/31 19:57:23;;;;;;;29.30;19.20;;;;;;;;;;6186298;23;20001;-89
2023/12/31 19:59:49;;;;;;;26.75;19.15;;;;;;;;;;6186580;23;20001;-89
2023/12/31 20:02:16;;;;;;;26.73;18.63;;;;;;;;;;6186310;23;20329;-88
2023/12/31 20:04:44;;;;;;;29.67;19.48;;;;;;;;;;6186087;23;20009;-88
2023/12/31 20:07:09;;;;;;;26.50;18.13;;;;;;;;;;6186722;23;20079;-90
2023/12/31 20:09:38;;;;;;;24.35;17.10;;;;;;;;;;6184792;23;20428;-88
2023/12/31 20:12:04;;;;;;;21.50;15.82;;;;;;;;;;6184418;23;20450;-87
2023/12/31 20:14:30;;;;;;;23.40;16.35;;;;;;;;;;6186633;23;20075;-89
2023/12/31 20:16:55;;;;;;;21.02;15.50;;;;;;;;;;6186340;23;20040;-87
2023/12/31 20:19:21;;;;;;;24.00;17.30;;;;;;;;;;6184780;23;20012;-92
2023/12/31 20:21:46;;;;;;;19.58;14.68;;;;;;;;;;6185995;23;20005;-85
2023/12/31 20:24:14;;;;;;;21.02;15.25;;;;;;;;;;6186115;23;20083;-85
2023/12/31 20:26:41;;;;;;;21.17;14.75;;;;;;;;;;6185823;23;20001;-85
2023/12/31 20:29:06;;;;;;;18.83;13.95;;;;;;;;;;6186140;23;20052;-85
2023/12/31 20:31:34;;;;;;;17.20;13.20;;;;;;;;;;6185926;23;20005;-85
2023/12/31 20:34:00;;;;;;;21.48;15.27;;;;;;;;;;6186178;23;20039;-86
2023/12/31 20:36:25;;;;;;;20.48;15.10;;;;;;;;;;6185715;23;19997;-86
2023/12/31 20:38:50;;;;;;;18.65;14.88;;;;;;;;;;6184058;23;20017;-87
2023/12/31 20:41:16;;;;;;;21.55;15.10;;;;;;;;;;6185848;23;20009;-84
2023/12/31 20:43:44;;;;;;;19.95;15.07;;;;;;;;;;6185794;23;20001;-87
2023/12/31 20:46:10;;;;;;;17.60;12.98;;;;;;;;;;6185572;23;20004;-88
2023/12/31 20:48:36;;;;;;;17.20;13.10;;;;;;;;;;6185980;23;20057;-90
2023/12/31 20:51:02;;;;;;;19.92;13.73;;;;;;;;;;6185865;23;20000;-87
2023/12/31 20:53:27;;;;;;;18.48;14.80;;;;;;;;;;6185926;23;20001;-89
2023/12/31 20:55:52;;;;;;;22.73;16.35;;;;;;;;;;6186342;23;20371;-89
2023/12/31 20:58:18;;;;;;;24.77;18.17;;;;;;;;;;6188123;23;19997;-88
2023/12/31 21:00:44;;;;;;;21.27;14.65;;;;;;;;;;6186369;23;20040;-90
2023/12/31 21:03:12;;;;;;;21.70;17.10;;;;;;;;;;6187907;23;20027;-88
2023/12/31 21:05:39;;;;;;;23.55;17.30;;;;;;;;;;6185934;23;20037;-88
2023/12/31 21:08:04;;;;;;;21.40;17.17;;;;;;;;;;6185962;23;19997;-88
2023/12/31 21:10:30;;;;;;;22.50;17.23;;;;;;;;;;6187409;23;20008;-88
2023/12/31 21:12:56;;;;;;;24.63;16.58;;;;;;;;;;6185918;23;20066;-88
2023/12/31 21:15:21;;;;;;;26.55;18.13;;;;;;;;;;6187429;23;20010;-88
2023/12/31 21:17:47;;;;;;;23.98;17.88;;;;;;;;;;6185970;23;20012;-90
2023/12/31 21:20:13;;;;;;;22.05;16.65;;;;;;;;;;6187707;23;20012;-90
2023/12/31 21:22:38;;;;;;;22.95;16.95;;;;;;;;;;6186074;23;20091;-89
2023/12/31 21:25:04;;;;;;;24.13;17.17;;;;;;;;;;6185906;23;20009;-90
2023/12/31 21:27:29;;;;;;;27.37;17.70;;;;;;;;;;6186056;23;20013;-89
2023/12/31 21:29:55;;;;;;;24.02;16.42;;;;;;;;;;6187563;23;20075;-88
2023/12/31 21:32:21;;;;;;;22.20;16.67;;;;;;;;;;6185698;23;20332;-89
2023/12/31 21:34:47;;;;;;;22.17;16.33;;;;;;;;;;6185988;23;20009;-88
2023/12/31 21:37:13;;;;;;;23.15;17.20;;;;;;;;;;6185768;23;19922;-87
2023/12/31 21:39:38;;;;;;;22.33;16.40;;;;;;;;;;6185331;23;20016;-86
2023/12/31 21:42:04;;;;;;;27.50;19.50;;;;;;;;;;6187317;23;20013;-87
2023/12/31 21:44:29;;;;;;;24.05;17.40;;;;;;;;;;6186996;23;20001;-87
2023/12/31 21:46:58;;;;;;;24.45;18.20;;;;;;;;;;6187188;23;20320;-90
2023/12/31 21:49:23;;;;;;;;;;;;;;;;;;6187651;23;19912;-88
2023/12/31 21:51:48;;;;;;;;;;;;;;;;;;6187466;23;20419;-88
2023/12/31 21:54:14;;;;;;;19.33;14.43;;;;;;;;;;6188161;23;19936;-87
2023/12/31 21:56:41;;;;;;;18.38;14.00;;;;;;;;;;6185417;23;20031;-88
2023/12/31 21:59:07;;;;;;;18.45;13.57;;;;;;;;;;6185718;23;20084;-89
2023/12/31 22:01:32;;;;;;;20.15;13.65;;;;;;;;;;6187626;23;20494;-89
2023/12/31 22:03:57;;;;;;;17.83;14.02;;;;;;;;;;6185520;23;20085;-88
2023/12/31 22:06:23;;;;;;;19.95;14.55;;;;;;;;;;6187396;23;20005;-89
2023/12/31 22:08:49;;;;;;;19.60;14.55;;;;;;;;;;6184878;23;20009;-88
2023/12/31 22:11:14;;;;;;;19.52;13.95;;;;;;;;;;6187328;23;20436;-89
2023/12/31 22:13:41;;;;;;;18.17;12.60;;;;;;;;;;6187366;23;20028;-89
2023/12/31 22:16:07;;;;;;;17.70;13.07;;;;;;;;;;6185354;23;20482;-89
2023/12/31 22:18:32;;;;;;;16.98;13.27;;;;;;;;;;6186958;23;20092;-88
2023/12/31 22:20:58;;;;;;;17.30;12.25;;;;;;;;;;6185325;23;20450;-89
2023/12/31 22:23:23;;;;;;;;;;;;;;;;;;6185568;23;20001;-90
2023/12/31 22:25:49;;;;;;;;;;;;;;;;;;6187360;23;19912;-88
2023/12/31 22:28:14;;;;;;;;;;;;;;;;;;6186046;23;19916;-88
2023/12/31 22:30:39;;;;;;;;;;;;;;;;;;6187467;23;20235;-89
2023/12/31 22:33:05;;;;;;;;;;;;;;;;;;6185857;23;20038;-89
2023/12/31 22:35:30;;;;;;;;;;;;;;;;;;6185933;23;20363;-88
2023/12/31 22:37:55;;;;;;;;;;;;;;;;;;6185444;23;20370;-89
2023/12/31 22:40:22;;;;;;;;;;;;;;;;;;6185599;23;19947;-88
2023/12/31 22:42:48;;;;;;;;;;;;;;;;;;6187115;23;19930;-89
2023/12/31 22:45:13;;;;;;;;;;;;;;;;;;6185322;23;20336;-89
2023/12/31 22:47:39;;;;;;;;;;;;;;;;;;6185667;23;19994;-87
2023/12/31 22:50:05;;;;;;;;;;;;;;;;;;6185572;23;20282;-88
2023/12/31 22:52:30;;;;;;;;;;;;;;;;;;6187172;23;19908;-87
2023/12/31 22:54:55;;;;;;;;;;;;;;;;;;6187276;23;19915;-86
2023/12/31 22:57:20;;;;;;;;;;;;;;;;;;6187565;23;19975;-85
2023/12/31 22:59:46;;;;;;;;;;;;;;;;;;6185515;23;20209;-88
2023/12/31 23:02:12;;;;;;;;;;;;;;;;;;6190296;23;19908;-91
2023/12/31 23:04:37;;;;;;;;;;;;;;;;;;6194035;23;19908;-88
2023/12/31 23:07:03;;;;;;;;;;;;;;;;;;6192309;23;19915;-89
2023/12/31 23:09:28;;;;;;;;;;;;;;;;;;6187257;23;20036;-89
2023/12/31 23:11:53;;;;;;;;;;;;;;;;;;6187173;23;19916;-91
2023/12/31 23:14:19;;;;;;;;;;;;;;;;;;6187262;23;19912;-89
2023/12/31 23:16:44;;;;;;;;;;;;;;;;;;6185759;23;19912;-92
2023/12/31 23:19:10;;;;;;;;;;;;;;;;;;6187564;23;19908;-89
2023/12/31 23:21:35;;;;;;;;;;;;;;;;;;6188194;23;19908;-93
2023/12/31 23:24:00;;;;;;;;;;;;;;;;;;6186603;23;19908;-94
2023/12/31 23:26:25;;;;;;;;;;;;;;;;;;6187154;23;19908;-93
2023/12/31 23:28:51;;;;;;;;;;;;;;;;;;6187790;23;20240;-90
2023/12/31 23:31:17;;;;;;;;;;;;;;;;;;6186622;23;20245;-91
2023/12/31 23:33:42;;;;;;;;;;;;;;;;;;6186748;23;19915;-91
2023/12/31 23:36:08;;;;;;;;;;;;;;;;;;6186575;23;20334;-91
2023/12/31 23:38:33;;;;;;;;;;;;;;;;;;6187432;23;19916;-94
2023/12/31 23:40:58;;;;;;;;;;;;;;;;;;6190025;23;19915;-92
2023/12/31 23:43:24;;;;;;;;;;;;;;;;;;6187391;23;19919;-92
2023/12/31 23:45:49;;;;;;;;;;;;;;;;;;6185618;23;20347;-92
2023/12/31 23:48:15;;;;;;;;;;;;;;;;;;6186299;23;19908;-92
2023/12/31 23:50:40;;;;;;;;;;;;;;;;;;6185639;23;20224;-93
2023/12/31 23:53:05;;;;;;;;;;;;;;;;;;6185745;23;19912;-90
2023/12/31 23:55:31;;;;;;;;;;;;;;;;;;6186634;23;19987;-92
2023/12/31 23:57:56;;;;;;;;;;;;;;;;;;6186528;23;19908;-92
